createdAt,value
2019-05-18T00:02:23.766Z,98330.02
2019-05-18T00:04:56.201Z,98327.11
2019-05-18T00:07:28.589Z,98327.20
2019-05-18T00:10:01.017Z,98330.07
2019-05-18T00:12:33.805Z,98327.95
2019-05-18T00:15:06.350Z,98327.46
2019-05-18T00:17:38.771Z,98332.92
2019-05-18T00:20:11.908Z,98332.08
2019-05-18T00:22:44.423Z,98331.25
2019-05-18T00:25:16.856Z,98331.05
2019-05-18T00:27:49.330Z,98331.19
2019-05-18T00:30:21.758Z,98332.00
2019-05-18T00:32:54.232Z,98334.95
2019-05-18T00:35:26.651Z,98335.95
2019-05-18T00:37:59.047Z,98341.86
2019-05-18T00:40:31.478Z,98331.92
2019-05-18T00:43:03.887Z,98335.30
2019-05-18T00:45:36.307Z,98333.98
2019-05-18T00:48:08.722Z,98337.63
2019-05-18T00:50:41.137Z,98337.00
2019-05-18T00:53:13.532Z,98337.16
2019-05-18T00:55:45.963Z,98332.95
2019-05-18T00:58:18.357Z,98334.72
2019-05-18T01:00:50.803Z,98335.45
2019-05-18T01:03:23.199Z,98338.00
2019-05-18T01:05:55.731Z,98338.94
2019-05-18T01:08:28.125Z,98340.36
2019-05-18T01:11:00.544Z,98341.33
2019-05-18T01:13:32.956Z,98339.69
2019-05-18T01:16:05.458Z,98342.38
2019-05-18T01:18:37.842Z,98336.11
2019-05-18T01:21:10.311Z,98334.80
2019-05-18T01:23:42.710Z,98336.09
2019-05-18T01:26:15.252Z,98332.41
2019-05-18T01:28:47.682Z,98334.80
2019-05-18T01:31:20.113Z,98338.52
2019-05-18T01:33:52.503Z,98337.41
2019-05-18T01:36:24.941Z,98333.22
2019-05-18T01:38:57.339Z,98331.02
2019-05-18T01:41:29.772Z,98332.09
2019-05-18T01:44:02.208Z,98329.52
2019-05-18T01:46:34.861Z,98329.50
2019-05-18T01:49:07.255Z,98324.34
2019-05-18T01:51:39.687Z,98321.27
2019-05-18T01:54:12.081Z,98312.94
2019-05-18T01:56:44.506Z,98312.00
2019-05-18T01:59:16.907Z,98314.88
2019-05-18T02:01:49.334Z,98312.31
2019-05-18T02:04:22.816Z,98310.03
2019-05-18T02:06:55.356Z,98305.35
2019-05-18T02:09:27.760Z,98305.02
2019-05-18T02:12:00.316Z,98301.14
2019-05-18T02:14:33.803Z,98301.41
2019-05-18T02:17:06.326Z,98302.34
2019-05-18T02:19:38.717Z,98303.16
2019-05-18T02:22:11.138Z,98301.83
2019-05-18T02:24:43.542Z,98299.77
2019-05-18T02:27:15.966Z,98296.06
2019-05-18T02:29:48.362Z,98301.20
2019-05-18T02:32:20.790Z,98297.30
2019-05-18T02:34:54.256Z,98299.36
2019-05-18T02:37:26.683Z,98298.59
2019-05-18T02:39:59.097Z,98299.25
2019-05-18T02:42:31.515Z,98302.79
2019-05-18T02:45:03.995Z,98295.85
2019-05-18T02:47:36.411Z,98299.70
2019-05-18T02:50:08.835Z,98298.38
2019-05-18T02:52:41.248Z,98306.33
2019-05-18T02:55:13.650Z,98308.87
2019-05-18T02:57:46.064Z,98308.84
2019-05-18T03:00:18.470Z,98315.45
2019-05-18T03:02:50.908Z,98310.83
2019-05-18T03:05:23.306Z,98306.98
2019-05-18T03:07:55.769Z,98303.46
2019-05-18T03:10:28.174Z,98299.59
2019-05-18T03:13:00.527Z,98299.78
2019-05-18T03:15:33.012Z,98300.02
2019-05-18T03:18:05.482Z,98303.56
2019-05-18T03:20:37.844Z,98301.25
2019-05-18T03:23:10.266Z,98301.72
2019-05-18T03:25:42.941Z,98300.06
2019-05-18T03:28:15.383Z,98299.41
2019-05-18T03:30:47.782Z,98302.41
2019-05-18T03:33:20.222Z,98301.13
2019-05-18T03:35:52.624Z,98303.98
2019-05-18T03:38:25.135Z,98307.06
2019-05-18T03:40:57.531Z,98307.38
2019-05-18T03:43:29.919Z,98306.61
2019-05-18T03:46:02.370Z,98310.17
2019-05-18T03:48:34.796Z,98308.21
2019-05-18T03:51:07.851Z,98312.20
2019-05-18T03:53:40.277Z,98318.10
2019-05-18T03:56:12.689Z,98312.64
2019-05-18T03:58:45.088Z,98316.33
2019-05-18T04:01:17.576Z,98318.09
2019-05-18T04:03:49.992Z,98318.67
2019-05-18T04:06:22.533Z,98314.48
2019-05-18T04:08:54.940Z,98308.99
2019-05-18T04:11:27.357Z,98316.81
2019-05-18T04:13:59.707Z,98313.79
2019-05-18T04:16:32.149Z,98316.36
2019-05-18T04:19:04.535Z,98316.55
2019-05-18T04:21:36.957Z,98316.86
2019-05-18T04:24:09.386Z,98316.70
2019-05-18T04:26:41.812Z,98320.16
2019-05-18T04:29:14.215Z,98313.09
2019-05-18T04:31:46.648Z,98317.63
2019-05-18T04:34:19.042Z,98323.25
2019-05-18T04:36:51.467Z,98325.72
2019-05-18T04:39:23.873Z,98328.12
2019-05-18T04:41:56.303Z,98326.86
2019-05-18T04:44:28.699Z,98328.30
2019-05-18T04:47:01.122Z,98331.87
2019-05-18T04:49:33.517Z,98333.95
2019-05-18T04:52:05.955Z,98330.31
2019-05-18T04:54:38.359Z,98331.13
2019-05-18T04:57:10.785Z,98334.52
2019-05-18T04:59:43.191Z,98334.20
2019-05-18T05:02:15.616Z,98343.66
2019-05-18T05:04:51.475Z,98341.95
2019-05-18T05:07:22.131Z,98338.59
2019-05-18T05:09:54.544Z,98340.68
2019-05-18T05:12:27.032Z,98344.05
2019-05-18T05:14:59.526Z,98343.90
2019-05-18T05:17:31.963Z,98344.89
2019-05-18T05:20:17.243Z,98340.37
2019-05-18T05:22:38.514Z,98341.34
2019-05-18T05:25:10.924Z,98339.14
2019-05-18T05:27:43.342Z,98341.39
2019-05-18T05:30:15.757Z,98340.47
2019-05-18T05:32:48.176Z,98338.09
2019-05-18T05:35:20.639Z,98336.34
2019-05-18T05:37:53.104Z,98346.02
2019-05-18T05:40:25.496Z,98344.62
2019-05-18T05:42:57.916Z,98346.09
2019-05-18T05:45:30.320Z,98339.55
2019-05-18T05:48:02.751Z,98338.78
2019-05-18T05:50:36.695Z,98343.64
2019-05-18T05:53:09.288Z,98342.75
2019-05-18T05:55:41.674Z,98347.45
2019-05-18T05:58:14.180Z,98351.84
2019-05-18T06:00:46.569Z,98354.15
2019-05-18T06:03:18.989Z,98354.70
2019-05-18T06:05:51.384Z,98352.98
2019-05-18T06:08:23.841Z,98351.59
2019-05-18T06:10:56.236Z,98355.02
2019-05-18T06:13:28.651Z,98348.95
2019-05-18T06:16:01.051Z,98346.77
2019-05-18T06:18:33.614Z,98352.08
2019-05-18T06:21:06.001Z,98352.59
2019-05-18T06:23:38.450Z,98359.20
2019-05-18T06:26:10.902Z,98359.89
2019-05-18T06:28:43.319Z,98354.30
2019-05-18T06:31:15.772Z,98356.09
2019-05-18T06:33:48.199Z,98352.92
2019-05-18T06:36:20.601Z,98351.80
2019-05-18T06:38:53.046Z,98353.28
2019-05-18T06:41:25.441Z,98356.84
2019-05-18T06:43:58.492Z,98356.87
2019-05-18T06:46:34.044Z,98360.73
2019-05-18T06:49:06.471Z,98354.80
2019-05-18T06:51:38.882Z,98354.77
2019-05-18T06:54:11.307Z,98357.52
2019-05-18T06:56:43.709Z,98361.86
2019-05-18T06:59:16.898Z,98358.98
2019-05-18T07:01:49.302Z,98353.22
2019-05-18T07:04:22.688Z,98357.58
2019-05-18T07:06:55.088Z,98358.88
2019-05-18T07:09:27.525Z,98363.88
2019-05-18T07:11:59.932Z,98359.55
2019-05-18T07:14:32.351Z,98359.41
2019-05-18T07:17:04.801Z,98357.19
2019-05-18T07:19:37.215Z,98361.22
2019-05-18T07:22:09.624Z,98362.22
2019-05-18T07:24:43.113Z,98360.79
2019-05-18T07:27:15.445Z,98358.36
2019-05-18T07:29:47.863Z,98362.91
2019-05-18T07:32:20.265Z,98353.61
2019-05-18T07:34:52.699Z,98357.31
2019-05-18T07:37:25.148Z,98357.50
2019-05-18T07:39:57.620Z,98361.22
2019-05-18T07:42:30.025Z,98362.23
2019-05-18T07:45:02.554Z,98363.37
2019-05-18T07:47:35.283Z,98357.77
2019-05-18T07:50:08.106Z,98360.07
2019-05-18T07:52:40.439Z,98358.38
2019-05-18T07:55:12.856Z,98355.33
2019-05-18T07:57:45.281Z,98352.11
2019-05-18T08:00:17.717Z,98351.32
2019-05-18T08:02:50.102Z,98349.25
2019-05-18T08:05:22.530Z,98355.19
2019-05-18T08:07:54.927Z,98352.49
2019-05-18T08:10:45.660Z,98353.63
2019-05-18T08:13:18.103Z,98354.14
2019-05-18T08:15:50.521Z,98355.79
2019-05-18T08:18:22.961Z,98356.75
2019-05-18T08:20:55.374Z,98355.95
2019-05-18T08:23:27.775Z,98356.80
2019-05-18T08:26:00.184Z,98355.25
2019-05-18T08:28:32.592Z,98354.30
2019-05-18T08:31:05.014Z,98346.63
2019-05-18T08:33:37.415Z,98346.72
2019-05-18T08:36:09.855Z,98345.06
2019-05-18T08:38:42.257Z,98338.87
2019-05-18T08:41:14.682Z,98339.59
2019-05-18T08:43:47.083Z,98338.33
2019-05-18T08:46:19.601Z,98338.36
2019-05-18T08:48:52.003Z,98335.63
2019-05-18T08:51:24.424Z,98339.48
2019-05-18T08:53:56.819Z,98334.94
2019-05-18T08:56:29.259Z,98336.19
2019-05-18T08:59:01.653Z,98328.94
2019-05-18T09:01:34.177Z,98331.80
2019-05-18T09:04:07.596Z,98332.08
2019-05-18T09:06:40.035Z,98330.22
2019-05-18T09:09:12.430Z,98332.38
2019-05-18T09:11:44.851Z,98332.70
2019-05-18T09:14:17.314Z,98333.52
2019-05-18T09:16:49.767Z,98334.00
2019-05-18T09:19:22.262Z,98332.69
2019-05-18T09:21:54.690Z,98334.16
2019-05-18T09:24:27.094Z,98321.80
2019-05-18T09:26:59.550Z,98319.66
2019-05-18T09:29:32.034Z,98319.44
2019-05-18T09:32:04.490Z,98317.41
2019-05-18T09:34:36.896Z,98312.41
2019-05-18T09:37:09.317Z,98316.16
2019-05-18T09:39:41.723Z,98320.69
2019-05-18T09:42:14.150Z,98312.57
2019-05-18T09:44:46.544Z,98312.77
2019-05-18T09:47:18.977Z,98314.73
2019-05-18T09:49:51.373Z,98313.05
2019-05-18T09:52:43.277Z,98312.28
2019-05-18T09:54:57.896Z,98309.27
2019-05-18T09:57:30.320Z,98307.94
2019-05-18T10:00:02.750Z,98303.15
2019-05-18T10:02:35.245Z,98300.77
2019-05-18T10:05:07.683Z,98300.30
2019-05-18T10:07:40.289Z,98297.72
2019-05-18T10:10:12.697Z,98294.25
2019-05-18T10:12:45.193Z,98291.38
2019-05-18T10:15:17.594Z,98285.20
2019-05-18T10:17:50.035Z,98285.11
2019-05-18T10:20:22.434Z,98277.66
2019-05-18T10:23:11.405Z,98284.58
2019-05-18T10:25:29.011Z,98288.72
2019-05-18T10:28:01.447Z,98284.66
2019-05-18T10:30:33.839Z,98285.60
2019-05-18T10:33:06.271Z,98282.41
2019-05-18T10:35:38.679Z,98284.33
2019-05-18T10:38:11.184Z,98284.11
2019-05-18T10:40:43.590Z,98284.62
2019-05-18T10:43:16.022Z,98286.09
2019-05-18T10:45:48.457Z,98283.16
2019-05-18T10:48:20.886Z,98275.55
2019-05-18T10:50:53.290Z,98272.05
2019-05-18T10:53:28.642Z,98269.45
2019-05-18T10:55:59.840Z,98270.46
2019-05-18T10:58:32.357Z,98271.09
2019-05-18T11:01:04.770Z,98270.66
2019-05-18T11:03:37.200Z,98262.29
2019-05-18T11:06:09.614Z,98264.31
2019-05-18T11:08:42.041Z,98264.16
2019-05-18T11:11:14.434Z,98267.09
2019-05-18T11:13:46.881Z,98261.76
2019-05-18T11:16:19.308Z,98261.56
2019-05-18T11:18:51.748Z,98259.60
2019-05-18T11:21:25.144Z,98266.80
2019-05-18T11:23:57.591Z,98260.27
2019-05-18T11:26:29.990Z,98254.66
2019-05-18T11:29:02.417Z,98254.11
2019-05-18T11:31:34.819Z,98246.13
2019-05-18T11:34:07.255Z,98244.88
2019-05-18T11:36:39.660Z,98240.41
2019-05-18T11:39:12.081Z,98245.61
2019-05-18T11:41:44.490Z,98245.63
2019-05-18T11:44:16.904Z,98243.43
2019-05-18T11:46:49.301Z,98251.52
2019-05-18T11:49:21.827Z,98249.95
2019-05-18T11:51:54.227Z,98252.58
2019-05-18T11:54:26.642Z,98259.89
2019-05-18T11:56:59.066Z,98261.86
2019-05-18T11:59:31.495Z,98264.00
2019-05-18T12:02:03.904Z,98272.77
2019-05-18T12:04:36.328Z,98283.50
2019-05-18T12:07:08.747Z,98280.97
2019-05-18T12:09:41.168Z,98275.03
2019-05-18T12:12:13.567Z,98276.06
2019-05-18T12:14:45.991Z,98278.05
2019-05-18T12:17:18.435Z,98282.45
2019-05-18T12:19:50.817Z,98286.52
2019-05-18T12:22:23.241Z,98283.63
2019-05-18T12:24:55.665Z,98275.91
2019-05-18T12:27:28.082Z,98268.98
2019-05-18T12:30:00.450Z,98274.67
2019-05-18T12:32:32.846Z,98275.81
2019-05-18T12:35:05.612Z,98285.53
2019-05-18T12:37:38.012Z,98294.08
2019-05-18T12:40:10.470Z,98298.95
2019-05-18T12:42:42.930Z,98300.11
2019-05-18T12:45:15.348Z,98298.67
2019-05-18T12:47:47.743Z,98299.66
2019-05-18T12:50:20.182Z,98300.64
2019-05-18T12:52:52.581Z,98306.46
2019-05-18T12:55:25.008Z,98303.25
2019-05-18T12:57:57.430Z,98296.98
2019-05-18T13:00:29.860Z,98298.75
2019-05-18T13:03:02.297Z,98298.44
2019-05-18T13:05:34.745Z,98292.63
2019-05-18T13:08:07.135Z,98286.18
2019-05-18T13:10:39.886Z,98275.39
2019-05-18T13:13:12.307Z,98277.16
2019-05-18T13:15:44.765Z,98271.86
2019-05-18T13:18:17.240Z,98268.49
2019-05-18T13:20:49.642Z,98272.84
2019-05-18T13:23:22.075Z,98269.27
2019-05-18T13:25:54.505Z,98266.88
2019-05-18T13:28:26.921Z,98268.94
2019-05-18T13:30:59.349Z,98268.15
2019-05-18T13:33:31.785Z,98273.15
2019-05-18T13:36:04.194Z,98270.56
2019-05-18T13:38:36.614Z,98269.13
2019-05-18T13:41:09.027Z,98267.20
2019-05-18T13:43:41.469Z,98261.41
2019-05-18T13:46:13.915Z,98264.16
2019-05-18T13:48:46.417Z,98261.56
2019-05-18T13:51:18.818Z,98258.97
2019-05-18T13:53:51.259Z,98255.29
2019-05-18T13:56:23.656Z,98254.16
2019-05-18T13:58:56.076Z,98253.19
2019-05-18T14:01:28.788Z,98249.48
2019-05-18T14:04:02.463Z,98245.92
2019-05-18T14:06:34.951Z,98245.79
2019-05-18T14:09:07.420Z,98245.44
2019-05-18T14:11:40.065Z,98241.75
2019-05-18T14:14:13.289Z,98244.97
2019-05-18T14:16:46.933Z,98242.88
2019-05-18T14:19:19.351Z,98236.28
2019-05-18T14:21:52.635Z,98230.48
2019-05-18T14:24:25.209Z,98224.17
2019-05-18T14:26:57.847Z,98224.19
2019-05-18T14:29:30.276Z,98225.14
2019-05-18T14:32:03.554Z,98221.28
2019-05-18T14:34:36.179Z,98211.45
2019-05-18T14:37:08.639Z,98213.22
2019-05-18T14:39:41.293Z,98221.59
2019-05-18T14:42:13.789Z,98219.49
2019-05-18T14:44:46.437Z,98221.77
2019-05-18T14:47:18.975Z,98219.66
2019-05-18T14:49:51.819Z,98224.68
2019-05-18T14:52:25.294Z,98224.66
2019-05-18T14:54:57.720Z,98224.03
2019-05-18T14:57:30.114Z,98224.52
2019-05-18T15:00:02.784Z,98225.96
2019-05-18T15:02:36.416Z,98229.83
2019-05-18T15:05:09.075Z,98234.84
2019-05-18T15:07:42.445Z,98236.12
2019-05-18T15:10:14.866Z,98236.28
2019-05-18T15:12:47.351Z,98232.11
2019-05-18T15:15:19.775Z,98226.28
2019-05-18T15:17:52.338Z,98223.09
2019-05-18T15:20:25.140Z,98230.67
2019-05-18T15:22:57.650Z,98231.95
2019-05-18T15:25:30.094Z,98234.55
2019-05-18T15:28:02.495Z,98230.69
2019-05-18T15:30:34.913Z,98233.42
2019-05-18T15:33:07.327Z,98224.08
2019-05-18T15:35:39.742Z,98208.61
2019-05-18T15:38:12.148Z,98206.69
2019-05-18T15:40:44.696Z,98199.78
2019-05-18T15:43:17.231Z,98201.23
2019-05-18T15:45:49.646Z,98200.75
2019-05-18T15:48:22.065Z,98206.09
2019-05-18T15:50:54.473Z,98204.15
2019-05-18T15:53:27.926Z,98206.07
2019-05-18T15:56:05.634Z,98204.47
2019-05-18T15:58:34.521Z,98202.72
2019-05-18T16:01:07.063Z,98206.26
2019-05-18T16:03:39.624Z,98213.03
2019-05-18T16:06:12.053Z,98220.93
2019-05-18T16:08:44.539Z,98215.28
2019-05-18T16:11:18.436Z,98216.27
2019-05-18T16:13:50.846Z,98220.13
2019-05-18T16:16:23.298Z,98235.13
2019-05-18T16:18:55.689Z,98229.12
2019-05-18T16:21:28.123Z,98229.61
2019-05-18T16:24:00.629Z,98227.84
2019-05-18T16:26:33.096Z,98232.34
2019-05-18T16:29:05.591Z,98234.42
2019-05-18T16:31:38.012Z,98245.23
2019-05-18T16:34:10.337Z,98242.66
2019-05-18T16:36:42.835Z,98244.42
2019-05-18T16:39:15.238Z,98234.91
2019-05-18T16:41:47.659Z,98235.55
2019-05-18T16:44:20.058Z,98238.80
2019-05-18T16:46:53.549Z,98239.43
2019-05-18T16:49:25.990Z,98238.30
2019-05-18T16:51:58.403Z,98233.79
2019-05-18T16:54:30.810Z,98233.17
2019-05-18T16:57:03.322Z,98224.95
2019-05-18T16:59:35.793Z,98228.16
2019-05-18T17:02:09.809Z,98223.99
2019-05-18T17:04:42.871Z,98228.66
2019-05-18T17:07:15.295Z,98235.42
2019-05-18T17:09:47.772Z,98233.97
2019-05-18T17:12:20.236Z,98232.36
2019-05-18T17:14:52.666Z,98232.34
2019-05-18T17:17:25.213Z,98238.30
2019-05-18T17:19:58.710Z,98244.25
2019-05-18T17:22:31.140Z,98245.55
2019-05-18T17:25:03.598Z,98250.86
2019-05-18T17:27:36.092Z,98257.63
2019-05-18T17:30:08.787Z,98266.31
2019-05-18T17:32:41.191Z,98269.54
2019-05-18T17:35:13.728Z,98283.54
2019-05-18T17:37:46.138Z,98288.70
2019-05-18T17:40:18.772Z,98297.55
2019-05-18T17:42:51.178Z,98297.56
2019-05-18T17:45:23.694Z,98313.01
2019-05-18T17:47:56.152Z,98311.05
2019-05-18T17:50:28.836Z,98321.20
2019-05-18T17:53:01.272Z,98324.90
2019-05-18T17:55:33.711Z,98335.05
2019-05-18T17:58:06.216Z,98347.77
2019-05-18T18:00:38.734Z,98349.03
2019-05-18T18:03:11.262Z,98355.79
2019-05-18T18:05:43.707Z,98366.39
2019-05-18T18:08:16.205Z,98371.05
2019-05-18T18:10:48.648Z,98373.78
2019-05-18T18:13:21.069Z,98376.04
2019-05-18T18:15:53.487Z,98384.38
2019-05-18T18:18:26.979Z,98380.69
2019-05-18T18:20:59.565Z,98386.95
2019-05-18T18:23:32.095Z,98385.81
2019-05-18T18:26:04.590Z,98382.09
2019-05-18T18:28:37.003Z,98385.33
2019-05-18T18:31:09.655Z,98378.54
2019-05-18T18:33:42.049Z,98376.05
2019-05-18T18:36:14.473Z,98376.14
2019-05-18T18:38:46.959Z,98377.72
2019-05-18T18:41:19.740Z,98376.38
2019-05-18T18:43:52.205Z,98376.33
2019-05-18T18:46:25.707Z,98383.06
2019-05-18T18:48:58.104Z,98382.27
2019-05-18T18:51:30.578Z,98383.36
2019-05-18T18:54:03.015Z,98384.16
2019-05-18T18:56:35.532Z,98381.10
2019-05-18T18:59:07.929Z,98374.19
2019-05-18T19:01:40.422Z,98377.39
2019-05-18T19:04:12.822Z,98375.44
2019-05-18T19:06:45.243Z,98368.36
2019-05-18T19:09:17.580Z,98368.50
2019-05-18T19:11:50.039Z,98370.61
2019-05-18T19:14:22.436Z,98371.55
2019-05-18T19:16:54.870Z,98358.20
2019-05-18T19:19:27.272Z,98346.47
2019-05-18T19:21:59.718Z,98337.61
2019-05-18T19:24:32.115Z,98336.80
2019-05-18T19:27:04.638Z,98331.84
2019-05-18T19:29:37.013Z,98327.02
2019-05-18T19:32:09.434Z,98326.03
2019-05-18T19:34:41.842Z,98329.76
2019-05-18T19:37:14.265Z,98330.23
2019-05-18T19:39:46.731Z,98331.36
2019-05-18T19:42:19.259Z,98333.27
2019-05-18T19:44:51.713Z,98330.20
2019-05-18T19:47:24.137Z,98326.19
2019-05-18T19:49:56.534Z,98321.03
2019-05-18T19:52:28.966Z,98318.95
2019-05-18T19:55:01.354Z,98316.84
2019-05-18T19:57:33.777Z,98323.73
2019-05-18T20:00:06.410Z,98333.37
2019-05-18T20:02:39.895Z,98334.64
2019-05-18T20:05:12.627Z,98336.42
2019-05-18T20:07:45.110Z,98344.94
2019-05-18T20:10:17.656Z,98348.13
2019-05-18T20:12:50.165Z,98353.11
2019-05-18T20:15:22.596Z,98364.20
2019-05-18T20:17:55.032Z,98383.47
2019-05-18T20:20:27.424Z,98382.48
2019-05-18T20:22:59.820Z,98385.37
2019-05-18T20:25:32.248Z,98386.67
2019-05-18T20:28:04.655Z,98392.63
2019-05-18T20:30:37.090Z,98394.69
2019-05-18T20:33:09.557Z,98389.88
2019-05-18T20:35:43.057Z,98384.41
2019-05-18T20:38:16.527Z,98386.34
2019-05-18T20:40:48.941Z,98394.06
2019-05-18T20:43:21.375Z,98397.59
2019-05-18T20:45:53.900Z,98403.55
2019-05-18T20:48:26.299Z,98401.62
2019-05-18T20:50:58.735Z,98410.62
2019-05-18T20:53:31.139Z,98419.11
2019-05-18T20:56:03.624Z,98425.38
2019-05-18T20:58:40.295Z,98424.71
2019-05-18T21:01:10.363Z,98417.47
2019-05-18T21:03:42.790Z,98419.72
2019-05-18T21:06:15.204Z,98419.39
2019-05-18T21:08:47.603Z,98418.09
2019-05-18T21:11:20.030Z,98416.80
2019-05-18T21:13:52.427Z,98419.70
2019-05-18T21:16:25.935Z,98424.52
2019-05-18T21:18:58.354Z,98420.66
2019-05-18T21:21:30.842Z,98420.19
2019-05-18T21:24:03.255Z,98416.17
2019-05-18T21:26:35.763Z,98419.23
2019-05-18T21:29:08.166Z,98415.97
2019-05-18T21:31:40.537Z,98411.14
2019-05-18T21:34:12.965Z,98410.50
2019-05-18T21:36:45.363Z,98408.57
2019-05-18T21:39:17.841Z,98406.31
2019-05-18T21:41:50.259Z,98406.64
2019-05-18T21:44:22.650Z,98401.14
2019-05-18T21:46:55.111Z,98403.70
2019-05-18T21:49:27.566Z,98400.80
2019-05-18T21:51:59.980Z,98400.29
2019-05-18T21:54:32.385Z,98399.16
2019-05-18T21:57:04.850Z,98401.08
2019-05-18T21:59:37.244Z,98398.67
2019-05-18T22:02:09.746Z,98402.53
2019-05-18T22:04:42.179Z,98400.61
2019-05-18T22:07:14.632Z,98399.33
2019-05-18T22:09:47.036Z,98398.84
2019-05-18T22:12:19.465Z,98396.08
2019-05-18T22:14:51.936Z,98393.36
2019-05-18T22:17:24.375Z,98392.37
2019-05-18T22:19:56.774Z,98392.55
2019-05-18T22:22:29.225Z,98384.97
2019-05-18T22:25:01.646Z,98383.69
2019-05-18T22:27:35.074Z,98379.48
2019-05-18T22:30:07.476Z,98375.63
2019-05-18T22:32:39.892Z,98374.34
2019-05-18T22:35:12.293Z,98374.80
2019-05-18T22:37:44.715Z,98380.77
2019-05-18T22:40:17.112Z,98379.48
2019-05-18T22:42:49.539Z,98374.97
2019-05-18T22:45:21.974Z,98374.67
2019-05-18T22:47:54.382Z,98363.41
2019-05-18T22:50:26.905Z,98353.13
2019-05-18T22:52:59.400Z,98350.23
2019-05-18T22:55:31.814Z,98349.25
2019-05-18T22:58:04.241Z,98353.92
2019-05-18T23:00:36.633Z,98355.51
2019-05-18T23:03:09.049Z,98347.16
2019-05-18T23:05:41.451Z,98341.84
2019-05-18T23:08:13.875Z,98334.13
2019-05-18T23:10:46.277Z,98326.73
2019-05-18T23:13:18.764Z,98319.67
2019-05-18T23:15:51.208Z,98312.76
2019-05-18T23:18:23.662Z,98312.11
2019-05-18T23:20:56.055Z,98316.11
2019-05-18T23:23:28.619Z,98314.00
2019-05-18T23:26:01.076Z,98308.23
2019-05-18T23:28:33.506Z,98309.34
2019-05-18T23:31:05.910Z,98306.75
2019-05-18T23:33:38.431Z,98301.59
2019-05-18T23:36:12.058Z,98301.27
2019-05-18T23:38:44.484Z,98304.20
2019-05-18T23:41:16.954Z,98304.49
2019-05-18T23:43:49.384Z,98300.30
2019-05-18T23:46:21.818Z,98298.20
2019-05-18T23:48:54.217Z,98292.74
2019-05-18T23:51:26.640Z,98290.67
2019-05-18T23:53:59.054Z,98300.45
2019-05-18T23:56:31.474Z,98302.20
2019-05-18T23:59:04.595Z,98304.57
